createdAt,value
2017-04-08T06:23:37.732Z,968.01
2017-04-08T06:24:18.561Z,968.03
2017-04-08T06:24:59.121Z,968.08
2017-04-08T06:25:40.194Z,968.05
2017-04-08T06:26:21.755Z,968.08
2017-04-08T06:27:01.758Z,968.09
2017-04-08T06:27:42.434Z,968.02
2017-04-08T06:28:22.999Z,968
2017-04-08T06:29:03.910Z,968.03
2017-04-08T06:29:44.653Z,968.03
2017-04-08T06:30:25.538Z,968.08
2017-04-08T06:31:06.627Z,968.05
2017-04-08T06:31:47.589Z,968.04
2017-04-08T06:32:28.165Z,968.04
2017-04-08T06:33:08.739Z,968.06
2017-04-08T06:33:49.319Z,968.04
2017-04-08T06:34:30.086Z,968.07
2017-04-08T06:35:10.975Z,968.03
2017-04-08T06:35:51.552Z,968.03
2017-04-08T06:36:32.126Z,968.07
2017-04-08T06:37:12.985Z,968.09
2017-04-08T06:37:53.793Z,968.11
2017-04-08T06:38:35.038Z,968.11
2017-04-08T06:39:15.621Z,968.1
2017-04-08T06:39:56.189Z,968.08
2017-04-08T06:40:37.008Z,968.1
2017-04-08T06:41:17.587Z,968.09
2017-04-08T06:41:58.300Z,968.1
2017-04-08T06:42:38.885Z,968.13
2017-04-08T06:43:19.550Z,968.13
2017-04-08T06:44:00.692Z,968.15
2017-04-08T06:44:41.644Z,968.12
2017-04-08T06:45:22.425Z,968.15
2017-04-08T06:46:03.018Z,968.15
2017-04-08T06:46:44.057Z,968.15
2017-04-08T06:47:24.635Z,968.18
2017-04-08T06:48:05.340Z,968.17
2017-04-08T06:48:45.927Z,968.16
2017-04-08T06:49:26.519Z,968.21
2017-04-08T06:50:07.101Z,968.18
2017-04-08T06:50:47.694Z,968.15
2017-04-08T06:51:28.271Z,968.15
2017-04-08T06:52:08.859Z,968.14
2017-04-08T06:52:49.760Z,968.12
2017-04-08T06:53:30.971Z,968.1
2017-04-08T06:54:11.540Z,968.13
2017-04-08T06:54:52.127Z,968.12
2017-04-08T06:55:32.705Z,968.13
2017-04-08T06:56:13.534Z,968.14
2017-04-08T06:56:54.465Z,968.13
2017-04-08T06:57:35.056Z,968.12
2017-04-08T06:58:15.639Z,968.17
2017-04-08T06:58:56.226Z,968.14
2017-04-08T06:59:37.075Z,968.11
2017-04-08T07:00:17.894Z,968.13
2017-04-08T07:00:58.832Z,968.15
2017-04-08T07:01:39.411Z,968.13
2017-04-08T07:02:19.999Z,968.16
2017-04-08T07:03:00.580Z,968.11
2017-04-08T07:03:41.351Z,968.14
2017-04-08T07:04:21.937Z,968.12
2017-04-08T07:05:02.526Z,968.14
2017-04-08T07:05:43.342Z,968.14
2017-04-08T07:06:23.937Z,968.15
2017-04-08T07:07:04.521Z,968.13
2017-04-08T07:07:45.107Z,968.18
2017-04-08T07:08:25.686Z,968.16
2017-04-08T07:09:06.273Z,968.16
2017-04-08T07:09:46.845Z,968.17
2017-04-08T07:10:27.429Z,968.19
2017-04-08T07:11:08.021Z,968.17
2017-04-08T07:11:48.597Z,968.16
2017-04-08T07:12:29.175Z,968.18
2017-04-08T07:13:09.756Z,968.13
2017-04-08T07:13:50.337Z,968.15
2017-04-08T07:14:30.916Z,968.13
2017-04-08T07:15:11.497Z,968.18
2017-04-08T07:15:52.082Z,968.16
2017-04-08T07:16:32.663Z,968.16
2017-04-08T07:17:13.250Z,968.2
2017-04-08T07:17:53.838Z,968.17
2017-04-08T07:18:34.418Z,968.16
2017-04-08T07:19:15.010Z,968.16
2017-04-08T07:19:55.590Z,968.18
2017-04-08T07:20:36.173Z,968.15
2017-04-08T07:21:16.741Z,968.18
2017-04-08T07:21:57.316Z,968.18
2017-04-08T07:22:37.906Z,968.13
2017-04-08T07:23:18.487Z,968.18
2017-04-08T07:23:59.061Z,968.15
2017-04-08T07:24:39.647Z,968.17
2017-04-08T07:25:20.232Z,968.17
2017-04-08T07:26:00.815Z,968.17
2017-04-08T07:26:41.395Z,968.17
2017-04-08T07:27:21.977Z,968.22
2017-04-08T07:28:02.567Z,968.18
2017-04-08T07:28:43.146Z,968.2
2017-04-08T07:29:23.724Z,968.2
2017-04-08T07:30:04.316Z,968.19
2017-04-08T07:30:44.904Z,968.21
2017-04-08T07:31:25.489Z,968.22
2017-04-08T07:32:06.070Z,968.26
2017-04-08T07:32:46.652Z,968.22
2017-04-08T07:33:27.226Z,968.23
2017-04-08T07:34:07.810Z,968.24
2017-04-08T07:34:48.386Z,968.26
2017-04-08T07:35:28.960Z,968.21
2017-04-08T07:36:09.541Z,968.27
2017-04-08T07:36:50.127Z,968.23
2017-04-08T07:37:30.710Z,968.23
2017-04-08T07:38:11.304Z,968.25
2017-04-08T07:38:51.884Z,968.28
2017-04-08T07:39:32.462Z,968.22
2017-04-08T07:40:13.050Z,968.23
2017-04-08T07:40:53.628Z,968.25
2017-04-08T07:41:34.217Z,968.23
2017-04-08T07:42:14.803Z,968.24
2017-04-08T07:42:55.389Z,968.22
2017-04-08T07:43:35.985Z,968.2
2017-04-08T07:44:16.571Z,968.22
2017-04-08T07:44:57.162Z,968.22
2017-04-08T07:45:37.751Z,968.24
2017-04-08T07:46:18.332Z,968.19
2017-04-08T07:46:58.919Z,968.19
2017-04-08T07:47:39.503Z,968.19
2017-04-08T07:48:20.082Z,968.21
2017-04-08T07:49:00.658Z,968.2
2017-04-08T07:49:41.239Z,968.18
2017-04-08T07:50:21.826Z,968.23
2017-04-08T07:51:02.398Z,968.22
2017-04-08T07:51:42.981Z,968.22
2017-04-08T07:52:23.726Z,968.21
2017-04-08T07:53:04.659Z,968.23
2017-04-08T07:53:45.681Z,968.2
2017-04-08T07:54:26.481Z,968.25
2017-04-08T07:55:07.311Z,968.23
2017-04-08T07:55:48.050Z,968.25
2017-04-08T07:56:28.961Z,968.26
2017-04-08T07:57:09.794Z,968.22
2017-04-08T07:57:50.380Z,968.26
2017-04-08T07:58:30.969Z,968.26
2017-04-08T07:59:11.654Z,968.27
2017-04-08T07:59:52.659Z,968.25
2017-04-08T08:00:33.453Z,968.27
2017-04-08T08:01:14.039Z,968.3
2017-04-08T08:01:54.731Z,968.26
2017-04-08T08:02:35.699Z,968.26
2017-04-08T08:03:16.394Z,968.26
2017-04-08T08:03:57.182Z,968.31
2017-04-08T08:04:37.972Z,968.27
2017-04-08T08:05:18.557Z,968.29
2017-04-08T08:05:59.347Z,968.31
2017-04-08T08:06:40.087Z,968.3
2017-04-08T08:07:20.871Z,968.3
2017-04-08T08:08:01.669Z,968.32
2017-04-08T08:08:42.644Z,968.3
2017-04-08T08:09:23.681Z,968.28
2017-04-08T08:10:04.368Z,968.3
2017-04-08T08:10:45.137Z,968.31
2017-04-08T08:11:25.713Z,968.29
2017-04-08T08:12:06.503Z,968.27
2017-04-08T08:12:47.085Z,968.26
2017-04-08T08:13:27.670Z,968.28
2017-04-08T08:14:08.249Z,968.26
2017-04-08T08:14:48.826Z,968.27
2017-04-08T08:15:29.413Z,968.26
2017-04-08T08:16:09.989Z,968.27
2017-04-08T08:16:50.571Z,968.27
2017-04-08T08:17:31.160Z,968.25
2017-04-08T08:18:11.741Z,968.27
2017-04-08T08:18:52.322Z,968.29
2017-04-08T08:19:32.905Z,968.27
2017-04-08T08:20:13.480Z,968.25
2017-04-08T08:20:54.079Z,968.23
2017-04-08T08:21:34.662Z,968.26
2017-04-08T08:22:15.248Z,968.27
2017-04-08T08:22:55.836Z,968.32
2017-04-08T08:23:36.407Z,968.3
2017-04-08T08:24:17.270Z,968.32
2017-04-08T08:24:57.857Z,968.32
2017-04-08T08:25:38.663Z,968.31
2017-04-08T08:26:19.332Z,968.32
2017-04-08T08:27:00.061Z,968.29
2017-04-08T08:27:40.946Z,968.27
2017-04-08T08:28:21.923Z,968.26
2017-04-08T08:29:02.635Z,968.26
2017-04-08T08:29:43.447Z,968.3
2017-04-08T08:30:24.232Z,968.27
2017-04-08T08:31:04.813Z,968.31
2017-04-08T08:31:45.499Z,968.31
2017-04-08T08:32:26.086Z,968.29
2017-04-08T08:33:06.669Z,968.28
2017-04-08T08:33:47.255Z,968.24
2017-04-08T08:34:28.005Z,968.2
2017-04-08T08:35:09.538Z,968.18
2017-04-08T08:35:50.446Z,968.19
2017-04-08T08:36:31.560Z,968.14
2017-04-08T08:37:12.659Z,968.16
2017-04-08T08:37:53.479Z,968.14
2017-04-08T08:38:34.397Z,968.16
2017-04-08T08:39:14.980Z,968.17
2017-04-08T08:39:55.908Z,968.16
2017-04-08T08:40:37.059Z,968.1
2017-04-08T08:41:17.966Z,968.11
2017-04-08T08:41:59.002Z,968.17
2017-04-08T08:42:39.692Z,968.15
2017-04-08T08:43:20.463Z,968.17
2017-04-08T08:44:01.375Z,968.19
2017-04-08T08:44:41.948Z,968.12
2017-04-08T08:45:22.553Z,968.15
2017-04-08T08:46:03.203Z,968.18
2017-04-08T08:46:43.792Z,968.17
2017-04-08T08:47:24.461Z,968.11
2017-04-08T08:48:05.456Z,968.17
2017-04-08T08:48:46.176Z,968.18
2017-04-08T08:49:26.742Z,968.17
2017-04-08T08:50:07.520Z,968.09
2017-04-08T08:50:48.098Z,968.16
2017-04-08T08:51:28.786Z,968.14
2017-04-08T08:52:09.413Z,968.15
2017-04-08T08:52:50.000Z,968.15
2017-04-08T08:53:30.581Z,968.1
2017-04-08T08:54:11.163Z,968.11
2017-04-08T08:54:51.780Z,968.13
2017-04-08T08:55:32.358Z,968.1
2017-04-08T08:56:12.937Z,968.14
2017-04-08T08:56:53.531Z,968.12
2017-04-08T08:57:34.129Z,968.12
2017-04-08T08:58:14.883Z,968.1
2017-04-08T08:58:55.823Z,968.09
2017-04-08T08:59:36.440Z,968.12
2017-04-08T09:00:17.081Z,968.12
2017-04-08T09:00:57.706Z,968.09
2017-04-08T09:01:38.296Z,968.05
2017-04-08T09:02:19.365Z,968.05
2017-04-08T09:03:00.147Z,968.05
2017-04-08T09:03:40.724Z,968.06
2017-04-08T09:04:21.654Z,968.07
2017-04-08T09:05:02.454Z,968.03
2017-04-08T09:05:43.027Z,968.05
2017-04-08T09:06:23.614Z,968.03
2017-04-08T09:07:04.458Z,968.04
2017-04-08T09:07:45.340Z,968.04
2017-04-08T09:08:25.977Z,968.04
2017-04-08T09:09:07.805Z,968.04
2017-04-08T09:09:48.407Z,968.02
2017-04-08T09:10:28.986Z,968.05
2017-04-08T09:11:09.569Z,968.04
2017-04-08T09:11:50.154Z,968.06
2017-04-08T09:12:30.732Z,968.04
2017-04-08T09:13:11.323Z,968.02
2017-04-08T09:13:51.909Z,968.04
2017-04-08T09:14:32.481Z,968.05
2017-04-08T09:15:13.706Z,968.03
2017-04-08T09:15:55.212Z,968.03
2017-04-08T09:16:36.501Z,968.03
2017-04-08T09:17:18.622Z,967.99
2017-04-08T09:18:00.098Z,967.98
2017-04-08T09:18:42.225Z,967.97
2017-04-08T09:19:23.821Z,967.97
2017-04-08T09:20:05.334Z,967.97
2017-04-08T09:20:46.811Z,967.95
2017-04-08T09:21:28.357Z,967.95
2017-04-08T09:22:09.787Z,967.95
2017-04-08T09:22:51.231Z,967.94
2017-04-08T09:23:32.617Z,967.99
2017-04-08T09:24:15.155Z,967.97
2017-04-08T09:24:56.411Z,967.94
2017-04-08T09:25:38.484Z,967.98
2017-04-08T09:26:19.977Z,968.01
2017-04-08T09:27:01.247Z,967.98
2017-04-08T09:27:42.960Z,968.06
2017-04-08T09:28:24.560Z,968.11
2017-04-08T09:29:06.843Z,968.07
2017-04-08T09:29:48.351Z,968.08
2017-04-08T09:30:29.558Z,968.09
2017-04-08T09:31:11.492Z,968.07
2017-04-08T09:31:53.445Z,967.95
2017-04-08T09:32:34.830Z,967.95
2017-04-08T09:33:17.003Z,967.97
2017-04-08T09:33:58.237Z,967.97
2017-04-08T09:34:39.542Z,967.94
2017-04-08T09:35:21.329Z,967.91
2017-04-08T09:36:02.660Z,967.93
2017-04-08T09:36:43.831Z,967.95
2017-04-08T09:37:25.105Z,967.96
2017-04-08T09:38:06.685Z,967.91
2017-04-08T09:38:47.729Z,967.9
2017-04-08T09:39:28.592Z,967.96
2017-04-08T09:40:09.978Z,967.97
2017-04-08T09:40:51.275Z,967.89
2017-04-08T09:41:32.764Z,967.94
2017-04-08T09:42:14.162Z,967.99
2017-04-08T09:42:55.495Z,967.96
2017-04-08T09:43:37.454Z,967.98
2017-04-08T09:44:18.958Z,967.93
2017-04-08T09:45:00.368Z,967.97
2017-04-08T09:45:41.649Z,967.96
2017-04-08T09:46:23.103Z,967.95
2017-04-08T09:47:04.577Z,967.89
2017-04-08T09:47:45.743Z,967.9
2017-04-08T09:48:27.163Z,967.91
2017-04-08T09:49:09.740Z,967.85
2017-04-08T09:49:51.510Z,967.88
2017-04-08T09:50:32.878Z,967.9
2017-04-08T09:51:14.457Z,967.85
2017-04-08T09:51:55.686Z,967.84
2017-04-08T09:52:37.962Z,967.88
2017-04-08T09:53:19.586Z,967.85
2017-04-08T09:54:00.943Z,967.85
2017-04-08T09:54:42.067Z,967.86
2017-04-08T09:55:23.322Z,967.84
2017-04-08T09:56:05.289Z,967.89
2017-04-08T09:56:47.812Z,967.86
2017-04-08T09:57:29.289Z,967.87
2017-04-08T09:58:10.482Z,967.84
2017-04-08T09:58:51.803Z,967.82
2017-04-08T13:31:08.981Z,965.98
2017-04-08T13:31:49.672Z,966.01
2017-04-08T13:32:30.633Z,965.95
2017-04-08T13:33:11.300Z,965.97
2017-04-08T13:33:52.090Z,965.96
2017-04-08T13:34:32.898Z,965.97
2017-04-08T13:35:13.624Z,965.94
2017-04-08T13:35:54.204Z,965.91
2017-04-08T13:36:34.783Z,965.97
2017-04-08T13:37:15.364Z,965.97
2017-04-08T13:37:55.955Z,965.96
2017-04-08T13:38:36.535Z,965.92
2017-04-08T13:39:17.116Z,965.95
2017-04-08T13:39:57.692Z,965.94
2017-04-08T13:40:38.282Z,965.93
2017-04-08T13:41:19.011Z,965.91
2017-04-08T13:41:59.592Z,965.91
2017-04-08T13:42:40.174Z,965.88
2017-04-08T13:43:20.756Z,965.9
2017-04-08T13:44:01.376Z,965.87
2017-04-08T13:44:42.107Z,965.89
2017-04-08T13:45:23.081Z,965.92
2017-04-08T13:46:03.987Z,965.86
2017-04-08T13:46:44.751Z,965.85
2017-04-08T13:47:25.529Z,965.86
2017-04-08T13:48:06.199Z,965.8
2017-04-08T13:48:46.779Z,965.81
2017-04-08T13:49:27.372Z,965.82
2017-04-08T13:50:08.107Z,965.85
2017-04-08T13:50:49.035Z,965.84
2017-04-08T13:51:29.777Z,965.8
2017-04-08T13:52:10.693Z,965.82
2017-04-08T13:52:51.271Z,965.79
2017-04-08T13:53:32.361Z,965.83
2017-04-08T13:54:13.044Z,965.84
2017-04-08T13:54:53.634Z,965.78
2017-04-08T13:55:34.209Z,965.81
2017-04-08T13:56:15.020Z,965.77
2017-04-08T13:56:55.639Z,965.78
2017-04-08T13:57:36.222Z,965.74
2017-04-08T13:58:17.425Z,965.78
2017-04-08T13:58:58.205Z,965.75
2017-04-08T13:59:39.264Z,965.73
2017-04-08T14:00:19.980Z,965.7
2017-04-08T14:01:00.562Z,965.74
2017-04-08T14:01:41.146Z,965.74
2017-04-08T14:02:21.728Z,965.71
2017-04-08T14:03:02.313Z,965.69
2017-04-08T14:03:42.898Z,965.71
2017-04-08T14:04:23.469Z,965.67
2017-04-08T14:05:04.058Z,965.67
2017-04-08T14:05:44.649Z,965.71
2017-04-08T14:06:25.214Z,965.65
2017-04-08T14:07:06.014Z,965.66
2017-04-08T14:07:46.597Z,965.65
2017-04-08T14:08:27.216Z,965.62
2017-04-08T14:09:07.815Z,965.59
2017-04-08T14:09:48.494Z,965.61
2017-04-08T14:10:29.255Z,965.63
2017-04-08T14:11:09.987Z,965.61
2017-04-08T14:11:50.569Z,965.6
2017-04-08T14:12:31.676Z,965.61
2017-04-08T14:13:12.505Z,965.6
2017-04-08T14:13:53.395Z,965.62
2017-04-08T14:14:34.328Z,965.6
2017-04-08T14:15:15.135Z,965.59
2017-04-08T14:15:56.087Z,965.61
2017-04-08T14:16:37.005Z,965.58
2017-04-08T14:17:17.795Z,965.6
2017-04-08T14:17:58.779Z,965.58
2017-04-08T14:18:39.702Z,965.58
2017-04-08T14:19:20.623Z,965.56
2017-04-08T14:20:01.448Z,965.56
2017-04-08T14:20:42.604Z,965.57
2017-04-08T14:21:23.669Z,965.56
2017-04-08T14:22:04.541Z,965.57
2017-04-08T14:22:45.472Z,965.56
2017-04-08T14:23:26.245Z,965.52
2017-04-08T14:24:07.292Z,965.54
2017-04-08T14:24:48.215Z,965.53
2017-04-08T14:25:29.138Z,965.56
2017-04-08T14:26:10.118Z,965.52
2017-04-08T14:26:51.334Z,965.53
2017-04-08T14:27:32.450Z,965.52
2017-04-08T14:28:13.152Z,965.57
2017-04-08T14:28:53.946Z,965.51
2017-04-08T14:29:34.961Z,965.52
2017-04-08T14:30:15.757Z,965.49
2017-04-08T14:30:56.665Z,965.49
2017-04-08T14:31:37.899Z,965.51
2017-04-08T14:32:18.476Z,965.47
2017-04-08T14:32:59.602Z,965.5
2017-04-08T14:33:40.396Z,965.47
2017-04-08T14:34:20.974Z,965.49
2017-04-08T14:35:01.545Z,965.46
2017-04-08T14:35:42.133Z,965.46
2017-04-08T14:36:22.723Z,965.45
2017-04-08T14:37:03.293Z,965.43
2017-04-08T14:37:43.879Z,965.43
2017-04-08T14:38:24.457Z,965.46
2017-04-08T14:39:05.037Z,965.41
2017-04-08T14:39:45.624Z,965.45
2017-04-08T14:40:26.200Z,965.42
2017-04-08T14:41:06.783Z,965.44
2017-04-08T14:41:47.367Z,965.44
2017-04-08T14:42:27.955Z,965.41
2017-04-08T14:43:08.533Z,965.4
2017-04-08T14:43:49.120Z,965.42
2017-04-08T14:44:29.695Z,965.4
2017-04-08T14:45:10.314Z,965.41
2017-04-08T14:45:50.863Z,965.41
2017-04-08T14:46:31.436Z,965.41
2017-04-08T14:47:12.029Z,965.4
2017-04-08T14:47:52.617Z,965.42
2017-04-08T14:48:33.199Z,965.42
2017-04-08T14:49:13.781Z,965.39
2017-04-08T14:49:54.366Z,965.44
2017-04-08T14:50:34.951Z,965.41
2017-04-08T14:51:15.533Z,965.41
2017-04-08T14:51:56.111Z,965.42
2017-04-08T14:52:36.705Z,965.42
2017-04-08T14:53:17.286Z,965.37
2017-04-08T14:53:57.869Z,965.4
2017-04-08T14:54:38.438Z,965.43
2017-04-08T14:55:19.020Z,965.39
2017-04-08T14:55:59.614Z,965.38
2017-04-08T14:56:40.199Z,965.35
2017-04-08T14:57:20.773Z,965.35
2017-04-08T14:58:01.349Z,965.32
2017-04-08T14:58:41.950Z,965.35
2017-04-08T14:59:22.529Z,965.35
2017-04-08T15:00:03.114Z,965.33
2017-04-08T15:00:43.696Z,965.31
2017-04-08T15:01:24.282Z,965.32
2017-04-08T15:02:04.852Z,965.36
2017-04-08T15:02:45.447Z,965.35
2017-04-08T15:03:26.105Z,965.31
2017-04-08T15:04:06.688Z,965.34
2017-04-08T15:04:47.264Z,965.38
2017-04-08T15:05:27.843Z,965.37
2017-04-08T15:06:08.420Z,965.39
2017-04-08T15:06:49.009Z,965.38
2017-04-08T15:07:29.591Z,965.41
2017-04-08T15:08:10.176Z,965.36
2017-04-08T15:08:50.763Z,965.37
2017-04-08T15:09:31.336Z,965.38
2017-04-08T15:10:11.918Z,965.4
2017-04-08T15:10:52.504Z,965.37
2017-04-08T15:11:33.082Z,965.4
2017-04-08T15:12:13.645Z,965.37
2017-04-08T15:12:54.216Z,965.39
2017-04-08T15:13:34.798Z,965.39
2017-04-08T15:14:15.382Z,965.38
2017-04-08T15:14:55.969Z,965.39
2017-04-08T15:15:36.554Z,965.4
2017-04-08T15:16:17.140Z,965.35
2017-04-08T15:16:57.724Z,965.42
2017-04-08T15:17:38.308Z,965.37
2017-04-08T15:18:18.883Z,965.35
2017-04-08T15:18:59.472Z,965.38
2017-04-08T15:19:40.056Z,965.35
2017-04-08T15:20:20.627Z,965.34
2017-04-08T15:21:01.216Z,965.36
2017-04-08T15:21:41.801Z,965.31
2017-04-08T15:22:22.385Z,965.31
2017-04-08T15:23:02.972Z,965.26
2017-04-08T15:23:43.550Z,965.31
2017-04-08T15:24:24.133Z,965.35
2017-04-08T15:25:04.721Z,965.36
2017-04-08T15:25:45.310Z,965.33
2017-04-08T15:26:25.895Z,965.35
2017-04-08T15:27:06.465Z,965.35
2017-04-08T15:27:47.049Z,965.33
2017-04-08T15:28:27.629Z,965.37
2017-04-08T15:29:08.208Z,965.34
2017-04-08T15:29:48.769Z,965.31
2017-04-08T15:30:29.361Z,965.36
2017-04-08T15:31:09.940Z,965.33
2017-04-08T15:31:50.521Z,965.35
2017-04-08T15:32:31.104Z,965.33
2017-04-08T15:33:11.676Z,965.31
2017-04-08T15:33:52.256Z,965.3
2017-04-08T15:34:32.843Z,965.34
2017-04-08T15:35:13.424Z,965.32
2017-04-08T15:35:54.012Z,965.32
2017-04-08T15:36:34.733Z,965.29
2017-04-08T15:37:16.304Z,965.27
2017-04-08T15:37:57.461Z,965.26
2017-04-08T15:38:38.823Z,965.28
2017-04-08T15:39:19.645Z,965.26
2017-04-08T15:40:00.493Z,965.28
2017-04-08T15:40:41.461Z,965.28
2017-04-08T15:41:22.179Z,965.29
2017-04-08T15:42:03.143Z,965.29
2017-04-08T15:42:44.104Z,965.28
2017-04-08T15:43:24.743Z,965.28
2017-04-08T15:44:05.746Z,965.24
2017-04-08T15:44:46.358Z,965.26
2017-04-08T15:45:27.081Z,965.26
2017-04-08T15:46:07.884Z,965.28
2017-04-08T15:46:48.868Z,965.3
2017-04-08T15:47:29.899Z,965.31
2017-04-08T15:48:10.591Z,965.3
2017-04-08T15:48:51.739Z,965.29
2017-04-08T15:49:32.330Z,965.27
2017-04-08T15:50:12.910Z,965.31
2017-04-08T15:50:53.710Z,965.31
2017-04-08T15:51:34.305Z,965.26
2017-04-08T15:52:15.274Z,965.28
2017-04-08T15:52:56.072Z,965.31
2017-04-08T15:53:37.141Z,965.3
2017-04-08T15:54:17.930Z,965.31
2017-04-08T15:54:58.764Z,965.31
2017-04-08T15:55:39.823Z,965.32
2017-04-08T15:56:20.404Z,965.3
2017-04-08T15:57:01.561Z,965.33
2017-04-08T15:57:42.637Z,965.28
2017-04-08T15:58:23.375Z,965.29
2017-04-08T15:59:04.302Z,965.28
2017-04-08T15:59:45.181Z,965.32
2017-04-08T16:00:25.966Z,965.33
2017-04-08T16:01:06.982Z,965.29
2017-04-08T16:01:48.171Z,965.31
2017-04-08T16:02:29.100Z,965.27
2017-04-08T16:03:09.679Z,965.31
2017-04-08T16:03:50.261Z,965.32
2017-04-08T16:04:30.840Z,965.3
2017-04-08T16:05:11.429Z,965.31
2017-04-08T16:05:52.011Z,965.28
2017-04-08T16:06:32.719Z,965.26
2017-04-08T16:07:13.314Z,965.33
2017-04-08T16:07:53.907Z,965.33
2017-04-08T16:08:34.481Z,965.3
2017-04-08T16:09:15.058Z,965.31
2017-04-08T16:09:55.647Z,965.3
2017-04-08T16:10:36.236Z,965.28
2017-04-08T16:11:17.058Z,965.29
2017-04-08T16:11:57.644Z,965.32
2017-04-08T16:12:38.457Z,965.31
2017-04-08T16:13:19.039Z,965.28
2017-04-08T16:13:59.621Z,965.33
2017-04-08T16:14:40.724Z,965.34
2017-04-08T16:15:21.539Z,965.34
2017-04-08T16:16:02.113Z,965.32
2017-04-08T16:16:42.696Z,965.34
2017-04-08T16:17:23.275Z,965.32
2017-04-08T16:18:03.857Z,965.31
2017-04-08T16:18:44.431Z,965.29
2017-04-08T16:19:25.024Z,965.27
2017-04-08T16:20:05.607Z,965.3
2017-04-08T16:20:46.193Z,965.29
2017-04-08T16:21:26.773Z,965.32
2017-04-08T16:22:07.356Z,965.31
2017-04-08T16:22:47.939Z,965.25
2017-04-08T16:23:28.518Z,965.29
2017-04-08T16:24:09.085Z,965.3
2017-04-08T16:24:49.773Z,965.29
2017-04-08T16:25:30.355Z,965.29
2017-04-08T16:26:10.940Z,965.29
2017-04-08T16:26:51.523Z,965.31
2017-04-08T16:27:32.104Z,965.31
2017-04-08T16:28:12.687Z,965.31
2017-04-08T16:28:53.271Z,965.34
2017-04-08T16:29:33.856Z,965.27
2017-04-08T16:30:14.439Z,965.28
2017-04-08T16:30:55.017Z,965.26
2017-04-08T16:31:35.602Z,965.28
2017-04-08T16:32:16.184Z,965.25
2017-04-08T16:32:56.768Z,965.25
2017-04-08T16:33:37.350Z,965.28
2017-04-08T16:34:17.946Z,965.23
2017-04-08T16:34:58.520Z,965.27
2017-04-08T16:35:39.110Z,965.28
2017-04-08T16:36:19.686Z,965.24
2017-04-08T16:37:00.272Z,965.27
2017-04-08T16:37:40.844Z,965.24
2017-04-08T16:38:21.432Z,965.23
2017-04-08T16:39:02.011Z,965.25
2017-04-08T16:39:42.595Z,965.26
2017-04-08T16:40:23.181Z,965.29
2017-04-08T16:41:03.770Z,965.24
2017-04-08T16:41:44.347Z,965.23
2017-04-08T16:42:24.941Z,965.29
2017-04-08T16:43:05.515Z,965.29
2017-04-08T16:43:46.102Z,965.26
2017-04-08T16:44:26.682Z,965.3
2017-04-08T16:45:07.264Z,965.3
2017-04-08T16:45:47.852Z,965.29
2017-04-08T16:46:28.431Z,965.28
2017-04-08T16:47:09.021Z,965.27
2017-04-08T16:47:49.603Z,965.29
2017-04-08T16:48:30.186Z,965.26
2017-04-08T16:49:10.768Z,965.26
2017-04-08T16:49:51.358Z,965.25
2017-04-08T16:50:31.941Z,965.25
2017-04-08T16:51:12.969Z,965.2
2017-04-08T16:51:53.847Z,965.28
2017-04-08T16:52:34.440Z,965.28
2017-04-08T16:53:15.013Z,965.26
2017-04-08T16:53:55.597Z,965.28
2017-04-08T16:54:36.434Z,965.26
2017-04-08T16:55:17.003Z,965.3
2017-04-08T16:55:57.589Z,965.29
2017-04-08T16:56:38.179Z,965.26
2017-04-08T16:57:18.757Z,965.27
2017-04-08T16:57:59.341Z,965.28
2017-04-08T16:58:39.929Z,965.24
2017-04-08T16:59:20.501Z,965.27
2017-04-08T17:00:01.092Z,965.25
2017-04-08T17:00:41.674Z,965.24
2017-04-08T17:01:22.262Z,965.26
2017-04-08T17:02:02.849Z,965.25
2017-04-08T17:02:43.446Z,965.3
2017-04-08T17:03:24.022Z,965.26
2017-04-08T17:04:04.606Z,965.26
2017-04-08T17:04:45.191Z,965.22
2017-04-08T17:05:25.776Z,965.26
2017-04-08T17:06:06.367Z,965.25
2017-04-08T17:06:46.953Z,965.28
2017-04-08T17:07:27.546Z,965.26
2017-04-08T17:08:08.128Z,965.25
2017-04-08T17:08:48.718Z,965.2
2017-04-08T17:09:29.308Z,965.24
2017-04-08T17:10:09.884Z,965.23
2017-04-08T17:10:50.461Z,965.2
2017-04-08T17:11:31.043Z,965.22
2017-04-08T17:12:11.630Z,965.25
2017-04-08T17:12:52.221Z,965.2
2017-04-08T17:13:32.821Z,965.22
2017-04-08T17:14:13.567Z,965.24
2017-04-08T17:14:54.118Z,965.25
2017-04-08T17:15:34.703Z,965.28
2017-04-08T17:16:15.281Z,965.26
2017-04-08T17:16:55.876Z,965.28
2017-04-08T17:17:36.462Z,965.25
2017-04-08T17:18:17.050Z,965.24
2017-04-08T17:18:57.632Z,965.26
2017-04-08T17:21:48.477Z,965.26
2017-04-08T17:22:29.064Z,965.3
2017-04-08T17:23:09.648Z,965.29
2017-04-08T17:23:50.232Z,965.26
2017-04-08T17:24:30.819Z,965.25
2017-04-08T17:25:11.396Z,965.29
2017-04-08T17:25:52.377Z,965.25
2017-04-08T17:26:34.108Z,965.25
2017-04-08T17:27:16.520Z,965.24
2017-04-08T17:27:57.917Z,965.27
2017-04-08T17:28:39.459Z,965.27
2017-04-08T17:29:20.663Z,965.22
2017-04-08T17:30:02.952Z,965.28
2017-04-08T17:30:44.478Z,965.31
2017-04-08T17:31:25.700Z,965.32
2017-04-08T17:32:06.794Z,965.3
2017-04-08T17:32:49.191Z,965.3
2017-04-08T17:33:30.301Z,965.31
2017-04-08T17:34:12.731Z,965.36
2017-04-08T17:34:54.119Z,965.36
2017-04-08T17:35:36.528Z,965.34
2017-04-08T17:36:17.889Z,965.34
2017-04-08T17:36:59.119Z,965.33
2017-04-08T17:37:40.376Z,965.34
2017-04-08T17:38:21.783Z,965.35
2017-04-08T17:39:03.173Z,965.35
2017-04-08T17:39:44.345Z,965.36
2017-04-08T17:40:25.852Z,965.37
2017-04-08T17:41:07.143Z,965.35
2017-04-08T17:41:48.432Z,965.38
2017-04-08T17:42:29.824Z,965.34
2017-04-08T17:43:11.235Z,965.37
2017-04-08T17:43:52.676Z,965.39
2017-04-08T17:44:34.002Z,965.37
2017-04-08T17:45:15.553Z,965.37
2017-04-08T17:45:56.817Z,965.36
2017-04-08T17:46:37.957Z,965.41
2017-04-08T17:47:19.162Z,965.41
2017-04-08T17:48:00.703Z,965.36
2017-04-08T17:48:42.163Z,965.37
2017-04-08T17:49:24.191Z,965.41
2017-04-08T17:50:05.653Z,965.41
2017-04-08T17:50:46.820Z,965.4
2017-04-08T17:51:28.106Z,965.43
2017-04-08T17:52:09.175Z,965.4
2017-04-08T17:52:50.439Z,965.41
2017-04-08T17:53:31.787Z,965.41
2017-04-08T17:54:13.365Z,965.39
2017-04-08T17:54:54.830Z,965.41
2017-04-08T17:55:36.050Z,965.43
2017-04-08T17:56:17.269Z,965.42
2017-04-08T17:56:58.297Z,965.44
2017-04-08T17:57:40.513Z,965.42
2017-04-08T17:58:22.017Z,965.43
2017-04-08T17:59:06.142Z,965.41
2017-04-08T17:59:48.052Z,965.42
2017-04-08T18:00:29.304Z,965.44
2017-04-08T18:01:11.400Z,965.44
2017-04-08T18:01:52.752Z,965.44
2017-04-08T18:02:34.429Z,965.43
2017-04-08T18:03:15.759Z,965.46
2017-04-08T18:03:56.867Z,965.45
2017-04-08T18:04:38.161Z,965.47
2017-04-08T18:05:20.597Z,965.48
2017-04-08T18:06:02.054Z,965.48
2017-04-08T18:06:43.434Z,965.49
2017-04-08T18:07:24.409Z,965.53
2017-04-08T18:08:05.878Z,965.5
2017-04-08T18:08:47.462Z,965.5
2017-04-08T18:09:29.026Z,965.5
2017-04-08T18:10:10.449Z,965.54
2017-04-08T18:10:52.198Z,965.54
2017-04-08T18:11:34.284Z,965.55
2017-04-08T18:12:15.732Z,965.58
2017-04-08T18:12:57.115Z,965.6
2017-04-08T18:13:38.233Z,965.63
2017-04-08T18:14:19.570Z,965.65
2017-04-08T18:15:00.921Z,965.64
2017-04-08T18:15:42.495Z,965.66
2017-04-08T18:16:23.536Z,965.64
2017-04-08T18:17:05.118Z,965.67
2017-04-08T18:17:46.602Z,965.69
2017-04-08T18:18:28.594Z,965.69
2017-04-08T18:19:10.027Z,965.7
2017-04-08T18:19:51.145Z,965.68
2017-04-08T18:20:32.522Z,965.73
2017-04-08T18:21:13.723Z,965.74
2017-04-08T18:21:55.042Z,965.74
2017-04-08T18:22:36.213Z,965.75
2017-04-08T18:23:17.554Z,965.74
2017-04-08T18:24:00.811Z,965.77
2017-04-08T18:24:42.066Z,965.75
2017-04-08T18:25:23.520Z,965.78
2017-04-08T18:26:05.584Z,965.75
2017-04-08T18:26:48.246Z,965.78
2017-04-08T18:27:29.864Z,965.79
2017-04-08T18:28:11.188Z,965.8